Time;durP1;ratioP1;P1;durP2;ratioP2;P2;SDS_P1;SDS_P2;PMS_P1;PMS_P2;Temp;Humidity;BMP_temperature;BMP_pressure;BME280_temperature;BME280_humidity;BME280_pressure;Samples;Min_cycle;Max_cycle;Signal;HPM_P1;HPM_P2
2022/10/09 00:02:13;;;;;;;;;;;8.80;99.90;;;;;;7336064;19;108429;-70
2022/10/09 00:04:40;;;;;;;;;;;8.80;99.90;;;;;;7337340;19;109518;-70
2022/10/09 00:07:07;;;;;;;;;;;8.80;99.90;;;;;;7336734;19;113194;-70
2022/10/09 00:09:34;;;;;;;;;;;8.80;99.90;;;;;;7337935;19;109637;-70
2022/10/09 00:12:00;;;;;;;;;;;8.70;99.90;;;;;;7341478;19;109632;-70
2022/10/09 00:14:27;;;;;;;;;;;8.60;99.90;;;;;;7334498;19;108922;-70
2022/10/09 00:16:54;;;;;;;;;;;8.60;99.90;;;;;;7335585;19;109841;-70
2022/10/09 00:19:21;;;;;;;;;;;8.60;99.90;;;;;;7335456;19;109819;-70
2022/10/09 00:21:48;;;;;;;;;;;8.60;99.90;;;;;;7335949;19;109530;-70
2022/10/09 00:24:15;;;;;;;;;;;8.50;99.90;;;;;;7334957;19;112287;-70
2022/10/09 00:26:41;;;;;;;;;;;8.50;99.90;;;;;;7333829;19;111371;-70
2022/10/09 00:29:08;;;;;;;;;;;8.40;99.90;;;;;;7335925;19;109324;-70
2022/10/09 00:31:35;;;;;;;;;;;8.40;99.90;;;;;;7341437;19;109708;-70
2022/10/09 00:34:02;;;;;;;;;;;8.40;99.90;;;;;;7334553;19;109546;-70
2022/10/09 00:36:29;;;;;;;;;;;8.40;99.90;;;;;;7335097;19;109792;-70
2022/10/09 00:38:56;;;;;;;;;;;8.30;99.90;;;;;;7337167;19;110617;-70
2022/10/09 00:41:24;;;;;;;;;;;8.30;99.90;;;;;;7337912;19;108403;-70
2022/10/09 00:43:59;;;;;;;;;;;8.20;99.90;;;;;;7336534;19;109221;-70
2022/10/09 00:46:28;;;;;;;;;;;8.20;99.90;;;;;;7334945;19;109435;-70
2022/10/09 00:48:58;;;;;;;;;;;8.20;99.90;;;;;;7334047;19;110182;-71
2022/10/09 00:51:26;;;;;;;;;;;8.20;99.90;;;;;;7334914;19;109714;-70
2022/10/09 00:53:53;;;;;;;;;;;8.20;99.90;;;;;;7340713;19;109331;-70
2022/10/09 00:56:20;;;;;;;;;;;8.20;99.90;;;;;;7334305;19;109204;-70
2022/10/09 00:58:50;;;;;;;;;;;8.10;99.90;;;;;;7332568;19;110634;-69
2022/10/09 01:01:17;;;;;;;;;;;8.10;99.90;;;;;;7333790;19;109683;-70
2022/10/09 01:03:44;;;;;;;;;;;8.10;99.90;;;;;;7336123;19;109267;-72
2022/10/09 01:06:21;;;;;;;;;;;8.10;99.90;;;;;;7334018;19;110245;-70
2022/10/09 01:08:59;;;;;;;;;;;8.00;99.90;;;;;;7334762;19;109087;-70
2022/10/09 01:11:40;;;;;;;;;;;7.90;99.90;;;;;;7334276;19;109245;-70
2022/10/09 01:14:18;;;;;;;;;;;7.80;99.90;;;;;;7332488;19;109112;-69
2022/10/09 01:16:54;;;;;;;;;;;7.90;99.90;;;;;;7340528;19;109497;-69
2022/10/09 01:19:34;;;;;;;;;;;7.90;99.90;;;;;;7333838;19;110710;-70
2022/10/09 01:22:17;;;;;;;;;;;7.80;99.90;;;;;;7335842;19;109445;-70
2022/10/09 01:24:49;;;;;;;;;;;7.80;99.90;;;;;;7334521;19;109200;-70
2022/10/09 01:27:18;;;;;;;;;;;7.80;99.90;;;;;;7331601;19;109677;-70
2022/10/09 01:29:51;;;;;;;;;;;7.80;99.90;;;;;;7333765;19;108808;-69
2022/10/09 01:32:20;;;;;;;;;;;7.80;99.90;;;;;;7331686;19;110187;-70
2022/10/09 01:34:47;;;;;;;;;;;7.80;99.90;;;;;;7333790;19;110402;-70
2022/10/09 01:37:15;;;;;;;;;;;7.80;99.90;;;;;;7332316;19;109510;-71
2022/10/09 01:39:43;;;;;;;;;;;7.80;99.90;;;;;;7338397;19;109396;-70
2022/10/09 01:42:11;;;;;;;;;;;7.80;99.90;;;;;;7333782;19;108447;-70
2022/10/09 01:44:38;;;;;;;;;;;7.70;99.90;;;;;;7332563;19;111766;-69
2022/10/09 01:47:05;;;;;;;;;;;7.70;99.90;;;;;;7331915;19;109311;-70
2022/10/09 01:49:38;;;;;;;;;;;7.70;99.90;;;;;;7333051;19;108909;-69
2022/10/09 01:52:05;;;;;;;;;;;7.70;99.90;;;;;;7332007;19;109297;-69
2022/10/09 01:54:32;;;;;;;;;;;7.70;99.90;;;;;;7330535;19;112002;-70
2022/10/09 01:57:01;;;;;;;;;;;7.60;99.90;;;;;;7333864;19;108813;-70
2022/10/09 01:59:29;;;;;;;;;;;7.60;99.90;;;;;;7332094;19;109164;-70
2022/10/09 02:01:57;;;;;;;;;;;7.60;99.90;;;;;;7336941;19;110011;-70
2022/10/09 02:04:24;;;;;;;;;;;7.50;99.90;;;;;;7332069;19;110249;-69
2022/10/09 02:06:52;;;;;;;;;;;7.40;99.90;;;;;;7332858;19;109214;-69
2022/10/09 02:09:20;;;;;;;;;;;7.40;99.90;;;;;;7334333;19;109338;-70
2022/10/09 02:11:50;;;;;;;;;;;7.40;99.90;;;;;;7340430;19;111789;-69
2022/10/09 02:14:17;;;;;;;;;;;7.40;99.90;;;;;;7338171;19;110622;-70
2022/10/09 02:16:45;;;;;;;;;;;7.30;99.90;;;;;;7339244;19;108801;-70
2022/10/09 02:19:16;;;;;;;;;;;7.30;99.90;;;;;;7339665;19;109292;-70
2022/10/09 02:21:43;;;;;;;;;;;7.30;99.90;;;;;;7338492;19;110429;-70
2022/10/09 02:24:17;;;;;;;;;;;7.30;99.90;;;;;;7342002;19;108937;-69
2022/10/09 02:26:44;;;;;;;;;;;7.20;99.90;;;;;;7340563;19;109264;-71
2022/10/09 02:29:12;;;;;;;;;;;7.20;99.90;;;;;;7335738;19;108476;-70
2022/10/09 02:31:40;;;;;;;;;;;7.20;99.90;;;;;;7337332;19;109955;-70
2022/10/09 02:34:09;;;;;;;;;;;7.20;99.90;;;;;;7338840;19;110144;-78
2022/10/09 02:36:36;;;;;;;;;;;7.20;99.90;;;;;;7340482;19;108671;-73
2022/10/09 02:39:04;;;;;;;;;;;7.10;99.90;;;;;;7340028;19;113615;-74
2022/10/09 02:41:31;;;;;;;;;;;7.10;99.90;;;;;;7336566;19;111780;-78
2022/10/09 02:43:58;;;;;;;;;;;7.20;99.90;;;;;;7343992;19;108990;-70
2022/10/09 02:46:25;;;;;;;;;;;7.20;99.90;;;;;;7335951;19;111642;-71
2022/10/09 02:48:52;;;;;;;;;;;7.20;99.90;;;;;;7337001;19;108468;-70
2022/10/09 02:51:19;;;;;;;;;;;7.10;99.90;;;;;;7338906;19;109218;-69
2022/10/09 02:53:45;;;;;;;;;;;7.20;99.90;;;;;;7339504;19;110579;-70
2022/10/09 02:56:12;;;;;;;;;;;7.20;99.90;;;;;;7337123;19;109898;-69
2022/10/09 02:58:39;;;;;;;;;;;7.20;99.90;;;;;;7337588;19;109536;-69
2022/10/09 03:01:06;;;;;;;;;;;7.10;99.90;;;;;;7337341;19;109414;-69
2022/10/09 03:03:33;;;;;;;;;;;7.10;99.90;;;;;;7336999;19;108822;-69
2022/10/09 03:06:13;;;;;;;;;;;7.00;99.90;;;;;;7340354;19;109813;-69
2022/10/09 03:08:45;;;;;;;;;;;7.00;99.90;;;;;;7339603;19;109097;-69
2022/10/09 03:11:13;;;;;;;;;;;7.00;99.90;;;;;;7335146;19;109638;-69
2022/10/09 03:13:40;;;;;;;;;;;7.00;99.90;;;;;;7336889;19;110560;-69
2022/10/09 03:16:14;;;;;;;;;;;7.00;99.90;;;;;;7337161;19;109313;-70
2022/10/09 03:18:42;;;;;;;;;;;7.00;99.90;;;;;;7338628;19;109066;-69
2022/10/09 03:21:10;;;;;;;;;;;7.00;99.90;;;;;;7335252;19;110616;-71
2022/10/09 03:23:37;;;;;;;;;;;7.00;99.90;;;;;;7337842;19;108755;-69
2022/10/09 03:26:05;;;;;;;;;;;7.00;99.90;;;;;;7334620;19;108684;-69
2022/10/09 03:28:36;;;;;;;;;;;7.00;99.90;;;;;;7340073;19;112619;-70
2022/10/09 03:31:03;;;;;;;;;;;7.00;99.90;;;;;;7337605;19;109451;-69
2022/10/09 03:33:31;;;;;;;;;;;7.00;99.90;;;;;;7335009;19;110173;-70
2022/10/09 03:35:57;;;;;;;;;;;6.90;99.90;;;;;;7337287;19;111445;-69
2022/10/09 03:38:24;;;;;;;;;;;6.90;99.90;;;;;;7336098;19;110967;-69
2022/10/09 03:40:52;;;;;;;;;;;6.90;99.90;;;;;;7337165;19;113250;-69
2022/10/09 03:43:19;;;;;;;;;;;6.90;99.90;;;;;;7337186;19;108579;-69
2022/10/09 03:45:46;;;;;;;;;;;6.80;99.90;;;;;;7337861;19;111390;-69
2022/10/09 03:48:13;;;;;;;;;;;6.80;99.90;;;;;;7337166;19;111113;-70
2022/10/09 03:50:40;;;;;;;;;;;6.80;99.90;;;;;;7344469;19;108678;-70
2022/10/09 03:53:07;;;;;;;;;;;6.80;99.90;;;;;;7333357;19;109166;-69
2022/10/09 03:55:34;;;;;;;;;;;6.80;99.90;;;;;;7338777;19;109001;-69
2022/10/09 03:58:01;;;;;;;;;;;6.70;99.90;;;;;;7337560;19;112468;-70
2022/10/09 04:00:28;;;;;;;;;;;6.70;99.90;;;;;;7335004;19;110417;-70
2022/10/09 04:02:56;;;;;;;;;;;6.70;99.90;;;;;;7335675;19;108863;-71
2022/10/09 04:05:23;;;;;;;;;;;6.60;99.90;;;;;;7334695;19;109210;-72
2022/10/09 04:07:50;;;;;;;;;;;6.60;99.90;;;;;;7335171;19;109602;-69
2022/10/09 04:10:17;;;;;;;;;;;6.60;99.90;;;;;;7335200;19;109918;-70
2022/10/09 04:12:43;;;;;;;;;;;6.60;99.90;;;;;;7342221;19;110558;-71
2022/10/09 04:15:10;;;;;;;;;;;6.70;99.90;;;;;;7334050;19;109251;-73
2022/10/09 04:17:37;;;;;;;;;;;6.60;99.90;;;;;;7336220;19;108757;-77
2022/10/09 04:20:04;;;;;;;;;;;6.60;99.90;;;;;;7334005;19;109547;-74
2022/10/09 04:22:31;;;;;;;;;;;6.60;99.90;;;;;;7333132;19;109097;-70
2022/10/09 04:24:58;;;;;;;;;;;6.60;99.90;;;;;;7335350;19;111658;-71
2022/10/09 04:27:25;;;;;;;;;;;6.60;99.90;;;;;;7332140;19;109327;-71
2022/10/09 04:29:52;;;;;;;;;;;6.60;99.90;;;;;;7335624;19;108928;-72
2022/10/09 04:32:19;;;;;;;;;;;6.50;99.90;;;;;;7339532;19;110181;-70
2022/10/09 04:34:45;;;;;;;;;;;6.40;99.90;;;;;;7333993;19;108918;-70
2022/10/09 04:37:12;;;;;;;;;;;6.50;99.90;;;;;;7336129;19;109396;-69
2022/10/09 04:39:39;;;;;;;;;;;6.50;99.90;;;;;;7334643;19;110450;-70
2022/10/09 04:42:06;;;;;;;;;;;6.50;99.90;;;;;;7334853;19;109522;-69
2022/10/09 04:44:33;;;;;;;;;;;6.40;99.90;;;;;;7331827;19;115153;-70
2022/10/09 04:47:00;;;;;;;;;;;6.40;99.90;;;;;;7336767;19;110272;-69
2022/10/09 04:49:27;;;;;;;;;;;6.30;99.90;;;;;;7332959;19;109307;-69
2022/10/09 04:51:54;;;;;;;;;;;6.30;99.90;;;;;;7336390;19;109486;-70
2022/10/09 04:54:21;;;;;;;;;;;6.30;99.90;;;;;;7338956;19;111101;-69
2022/10/09 04:56:47;;;;;;;;;;;6.30;99.90;;;;;;7337720;19;109296;-71
2022/10/09 04:59:14;;;;;;;;;;;6.20;99.90;;;;;;7333629;19;112119;-70
2022/10/09 05:01:41;;;;;;;;;;;6.20;99.90;;;;;;7333301;19;109227;-70
2022/10/09 05:04:08;;;;;;;;;;;6.30;99.90;;;;;;7336085;19;113682;-70
2022/10/09 05:06:35;;;;;;;;;;;6.30;99.90;;;;;;7333721;19;110154;-70
2022/10/09 05:09:02;;;;;;;;;;;6.40;99.90;;;;;;7332610;19;108400;-70
2022/10/09 05:11:29;;;;;;;;;;;6.30;99.90;;;;;;7334876;19;109497;-70
2022/10/09 05:13:56;;;;;;;;;;;6.30;99.90;;;;;;7333023;19;110291;-69
2022/10/09 05:16:25;;;;;;;;;;;6.30;99.90;;;;;;7337993;19;110069;-69
2022/10/09 05:18:54;;;;;;;;;;;6.40;99.90;;;;;;7333300;19;110333;-70
2022/10/09 05:21:21;;;;;;;;;;;6.40;99.90;;;;;;7328339;19;108456;-70
2022/10/09 05:23:48;;;;;;;;;;;6.40;99.90;;;;;;7332580;19;109602;-71
2022/10/09 05:26:17;;;;;;;;;;;6.40;99.90;;;;;;7335875;19;110632;-71
2022/10/09 05:28:44;;;;;;;;;;;6.40;99.90;;;;;;7332197;19;109255;-70
2022/10/09 05:31:32;;;;;;;;;;;6.40;99.90;;;;;;7335729;19;109126;-70
2022/10/09 05:33:59;;;;;;;;;;;6.30;99.90;;;;;;7335620;19;109076;-70
2022/10/09 05:36:26;;;;;;;;;;;6.40;99.90;;;;;;7331684;19;109781;-70
2022/10/09 05:38:54;;;;;;;;;;;6.30;99.90;;;;;;7341674;19;110703;-72
2022/10/09 05:41:21;;;;;;;;;;;6.40;99.90;;;;;;7330720;19;109303;-71
2022/10/09 05:43:48;;;;;;;;;;;6.30;99.90;;;;;;7331223;19;109223;-70
2022/10/09 05:46:15;;;;;;;;;;;6.30;99.90;;;;;;7330599;19;109251;-71
2022/10/09 05:48:43;;;;;;;;;;;6.30;99.90;;;;;;7334730;19;109150;-70
2022/10/09 05:51:10;;;;;;;;;;;6.30;99.90;;;;;;7332121;19;109278;-71
2022/10/09 05:53:38;;;;;;;;;;;6.30;99.90;;;;;;7335471;19;109328;-71
2022/10/09 05:56:13;;;;;;;;;;;6.30;99.90;;;;;;7333530;19;109004;-70
2022/10/09 05:58:41;;;;;;;;;;;6.30;99.90;;;;;;7335188;19;108940;-70
2022/10/09 06:01:08;;;;;;;;;;;6.30;99.90;;;;;;7338853;19;109362;-70
2022/10/09 06:03:36;;;;;;;;;;;6.30;99.90;;;;;;7334893;19;109309;-70
2022/10/09 06:06:07;;;;;;;;;;;6.30;99.90;;;;;;7332038;19;111294;-70
2022/10/09 06:08:35;;;;;;;;;;;6.30;99.90;;;;;;7333767;19;108963;-70
2022/10/09 06:11:30;;;;;;;;;;;6.30;99.90;;;;;;7334005;19;108235;-71
2022/10/09 06:13:58;;;;;;;;;;;6.30;99.90;;;;;;7332966;19;110090;-70
2022/10/09 06:16:26;;;;;;;;;;;6.30;99.90;;;;;;7332887;19;109121;-71
2022/10/09 06:18:53;;;;;;;;;;;6.30;99.90;;;;;;7334728;19;108880;-70
2022/10/09 06:21:21;;;;;;;;;;;6.40;99.90;;;;;;7333125;19;110306;-71
2022/10/09 06:23:51;;;;;;;;;;;6.40;99.90;;;;;;7342992;19;109118;-70
2022/10/09 06:26:19;;;;;;;;;;;6.50;99.90;;;;;;7336975;19;110775;-70
2022/10/09 06:28:46;;;;;;;;;;;6.50;99.90;;;;;;7333518;19;109395;-71
2022/10/09 06:31:15;;;;;;;;;;;6.50;99.90;;;;;;7334277;19;109968;-71
2022/10/09 06:33:43;;;;;;;;;;;6.60;99.90;;;;;;7334185;19;110149;-71
2022/10/09 06:36:11;;;;;;;;;;;6.60;99.90;;;;;;7332027;19;109915;-71
2022/10/09 06:38:38;;;;;;;;;;;6.60;99.90;;;;;;7335456;19;109048;-71
2022/10/09 06:41:09;;;;;;;;;;;6.60;99.90;;;;;;7330320;19;110138;-71
2022/10/09 06:43:36;;;;;;;;;;;6.70;99.90;;;;;;7336089;19;109695;-71
2022/10/09 06:46:04;;;;;;;;;;;6.70;99.90;;;;;;7326948;19;110130;-71
2022/10/09 06:48:32;;;;;;;;;;;6.80;99.90;;;;;;7330422;19;109170;-70
2022/10/09 06:51:03;;;;;;;;;;;6.90;99.90;;;;;;7331731;19;109341;-71
2022/10/09 06:53:32;;;;;;;;;;;6.90;99.90;;;;;;7330596;19;109271;-71
2022/10/09 06:55:59;;;;;;;;;;;7.00;99.90;;;;;;7331736;19;109973;-71
2022/10/09 06:58:27;;;;;;;;;;;7.10;99.90;;;;;;7337174;19;111757;-71
2022/10/09 07:01:07;;;;;;;;;;;7.20;99.90;;;;;;7338160;19;109830;-72
2022/10/09 07:03:34;;;;;;;;;;;7.20;99.90;;;;;;7342178;19;108399;-72
2022/10/09 07:06:12;;;;;;;;;;;7.30;99.90;;;;;;7347330;19;108304;-72
2022/10/09 07:08:40;;;;;;;;;;;7.40;99.90;;;;;;7340548;19;110896;-75
2022/10/09 07:11:11;;;;;;;;;;;7.50;99.90;;;;;;7341155;19;109078;-79
2022/10/09 07:13:40;;;;;;;;;;;7.60;99.90;;;;;;7334232;19;110763;-75
2022/10/09 07:16:07;;;;;;;;;;;7.60;99.90;;;;;;7336630;19;108881;-77
2022/10/09 07:18:34;;;;;;;;;;;7.80;99.90;;;;;;7335341;19;109456;-71
2022/10/09 07:21:02;;;;;;;;;;;7.80;99.90;;;;;;7337375;19;110557;-72
2022/10/09 07:23:29;;;;;;;;;;;8.00;99.90;;;;;;7336652;19;108457;-73
2022/10/09 07:25:57;;;;;;;;;;;8.10;99.90;;;;;;7338268;19;109265;-71
2022/10/09 07:28:25;;;;;;;;;;;8.20;99.90;;;;;;7339663;19;110325;-76
2022/10/09 07:30:52;;;;;;;;;;;8.30;99.90;;;;;;7338579;19;109161;-72
2022/10/09 07:33:19;;;;;;;;;;;8.40;99.90;;;;;;7333237;19;109977;-72
2022/10/09 07:35:56;;;;;;;;;;;8.50;99.90;;;;;;7339189;19;108556;-71
2022/10/09 07:38:26;;;;;;;;;;;8.60;99.90;;;;;;7338782;19;109339;-71
2022/10/09 07:40:53;;;;;;;;;;;8.70;99.90;;;;;;7336799;19;110111;-72
2022/10/09 07:43:20;;;;;;;;;;;8.70;99.90;;;;;;7336638;19;108958;-72
2022/10/09 07:45:47;;;;;;;;;;;8.80;99.90;;;;;;7338310;19;109178;-71
2022/10/09 07:48:14;;;;;;;;;;;8.90;99.90;;;;;;7331952;19;110205;-71
2022/10/09 07:50:41;;;;;;;;;;;9.00;99.90;;;;;;7341233;19;110065;-71
2022/10/09 07:53:08;;;;;;;;;;;9.10;99.90;;;;;;7335166;19;110478;-65
2022/10/09 07:55:35;;;;;;;;;;;9.20;99.90;;;;;;7334168;19;108800;-65
2022/10/09 07:58:02;;;;;;;;;;;9.40;99.90;;;;;;7336166;19;109165;-65
2022/10/09 08:00:29;;;;;;;;;;;9.50;99.90;;;;;;7335385;19;110294;-65
2022/10/09 08:02:56;;;;;;;;;;;9.60;99.90;;;;;;7335852;19;110015;-65
2022/10/09 08:05:23;;;;;;;;;;;9.60;99.90;;;;;;7335692;19;108219;-65
2022/10/09 08:07:50;;;;;;;;;;;9.80;99.90;;;;;;7336992;19;112756;-65
2022/10/09 08:10:17;;;;;;;;;;;9.90;99.90;;;;;;7336922;19;109916;-66
2022/10/09 08:12:44;;;;;;;;;;;10.00;99.90;;;;;;7341356;19;109488;-65
2022/10/09 08:15:12;;;;;;;;;;;10.10;99.90;;;;;;7337467;19;108453;-66
2022/10/09 08:17:39;;;;;;;;;;;10.20;99.90;;;;;;7337781;19;108881;-65
2022/10/09 08:20:06;;;;;;;;;;;10.30;99.90;;;;;;7335540;19;109792;-65
2022/10/09 08:22:33;;;;;;;;;;;10.40;99.90;;;;;;7336235;19;109532;-65
2022/10/09 08:24:59;;;;;;;;;;;10.50;99.90;;;;;;7337105;19;108746;-65
2022/10/09 08:27:26;;;;;;;;;;;10.60;99.90;;;;;;7337170;19;109230;-65
2022/10/09 08:29:53;;;;;;;;;;;10.70;99.90;;;;;;7335648;19;108860;-65
2022/10/09 08:32:20;;;;;;;;;;;10.80;99.90;;;;;;7334915;19;109894;-65
2022/10/09 08:34:47;;;;;;;;;;;11.00;99.90;;;;;;7340389;19;110139;-65
2022/10/09 08:37:14;;;;;;;;;;;11.10;99.90;;;;;;7336608;19;109701;-65
2022/10/09 08:39:41;;;;;;;;;;;11.20;99.90;;;;;;7332362;19;109307;-65
2022/10/09 08:42:15;;;;;;;;;;;11.30;99.90;;;;;;7336047;19;108426;-66
2022/10/09 08:44:44;;;;;;;;;;;11.30;99.90;;;;;;7338007;19;108839;-66
2022/10/09 08:47:36;;;;;;;;;;;11.40;99.90;;;;;;7335502;19;110183;-66
2022/10/09 08:50:21;;;;;;;;;;;11.60;99.90;;;;;;7336878;19;108957;-66
2022/10/09 08:52:54;;;;;;;;;;;11.70;99.90;;;;;;7335956;19;109630;-66
2022/10/09 08:55:25;;;;;;;;;;;11.80;99.90;;;;;;7343887;19;109746;-66
2022/10/09 08:57:56;;;;;;;;;;;11.90;99.90;;;;;;7336003;19;109254;-64
2022/10/09 09:00:25;;;;;;;;;;;12.00;99.90;;;;;;7335426;19;109206;-67
2022/10/09 09:03:00;;;;;;;;;;;12.20;99.90;;;;;;7331865;19;109102;-67
2022/10/09 09:05:32;;;;;;;;;;;12.30;99.90;;;;;;7333348;19;109340;-67
2022/10/09 09:08:01;;;;;;;;;;;12.50;99.90;;;;;;7331400;19;109892;-67
2022/10/09 09:10:34;;;;;;;;;;;12.60;99.90;;;;;;7330929;19;110726;-67
2022/10/09 09:13:10;;;;;;;;;;;12.70;99.90;;;;;;7335315;19;109206;-67
2022/10/09 09:15:46;;;;;;;;;;;12.90;99.90;;;;;;7332675;19;109556;-65
2022/10/09 09:18:13;;;;;;;;;;;13.10;99.90;;;;;;7338053;19;109145;-67
2022/10/09 09:20:53;;;;;;;;;;;13.20;99.90;;;;;;7332396;19;110192;-67
2022/10/09 09:23:24;;;;;;;;;;;13.30;99.90;;;;;;7332074;19;108755;-67
2022/10/09 09:25:51;;;;;;;;;;;13.40;99.90;;;;;;7333415;19;109222;-66
2022/10/09 09:28:20;;;;;;;;;;;13.50;99.90;;;;;;7331406;19;110502;-66
2022/10/09 09:30:54;;;;;;;;;;;13.60;99.90;;;;;;7332132;19;109070;-66
2022/10/09 09:33:24;;;;;;;;;;;13.70;99.90;;;;;;7329097;19;109292;-67
2022/10/09 09:35:58;;;;;;;;;;;13.90;99.90;;;;;;7333322;19;109149;-66
2022/10/09 09:38:25;;;;;;;;;;;14.00;99.90;;;;;;7331956;19;108675;-65
2022/10/09 09:40:52;;;;;;;;;;;14.10;99.90;;;;;;7337027;19;109747;-66
2022/10/09 09:43:20;;;;;;;;;;;14.20;99.90;;;;;;7331913;19;110063;-66
2022/10/09 09:45:49;;;;;;;;;;;14.30;99.90;;;;;;7333290;19;108501;-66
2022/10/09 09:48:34;;;;;;;;;;;14.40;99.90;;;;;;7331713;19;112984;-65
2022/10/09 09:51:03;;;;;;;;;;;14.50;99.90;;;;;;7332974;19;108819;-66
2022/10/09 09:53:55;;;;;;;;;;;14.60;99.90;;;;;;7333161;19;109171;-65
2022/10/09 09:56:37;;;;;;;;;;;14.80;99.90;;;;;;7332325;19;109200;-66
2022/10/09 09:59:25;;;;;;;;;;;14.80;99.90;;;;;;7332559;19;110454;-66
2022/10/09 10:02:18;;;;;;;;;;;15.00;99.90;;;;;;7333873;19;109018;-66
2022/10/09 10:04:48;;;;;;;;;;;15.00;99.90;;;;;;7337031;19;110504;-65
2022/10/09 10:07:26;;;;;;;;;;;15.20;99.90;;;;;;7332387;19;109303;-66
2022/10/09 10:10:11;;;;;;;;;;;15.30;99.90;;;;;;7331400;19;110249;-66
2022/10/09 10:12:42;;;;;;;;;;;15.40;99.90;;;;;;7331521;19;109474;-66
2022/10/09 10:15:36;;;;;;;;;;;15.50;99.90;;;;;;7332177;19;109417;-66
2022/10/09 10:18:04;;;;;;;;;;;15.60;99.90;;;;;;7333658;19;110040;-66
2022/10/09 10:20:32;;;;;;;;;;;15.70;99.90;;;;;;7332933;19;109006;-66
2022/10/09 10:22:59;;;;;;;;;;;15.80;99.90;;;;;;7331444;19;108684;-66
2022/10/09 10:25:30;;;;;;;;;;;15.80;99.90;;;;;;7327477;19;110121;-66
2022/10/09 10:27:59;;;;;;;;;;;15.90;99.90;;;;;;7334400;19;109605;-66
2022/10/09 10:30:26;;;;;;;;;;;16.10;99.90;;;;;;7331985;19;109223;-66
2022/10/09 10:32:56;;;;;;;;;;;16.20;99.90;;;;;;7341513;19;110420;-66
2022/10/09 10:35:25;;;;;;;;;;;16.20;99.90;;;;;;7340976;19;109822;-66
2022/10/09 10:37:54;;;;;;;;;;;16.30;99.90;;;;;;7335745;19;110279;-66
2022/10/09 10:40:41;;;;;;;;;;;16.40;99.90;;;;;;7335640;19;108939;-68
2022/10/09 10:46:29;;;;;;;;;;;16.60;99.90;;;;;;7334925;19;108753;-66
2022/10/09 10:48:58;;;;;;;;;;;16.70;99.90;;;;;;7338504;19;109300;-65
2022/10/09 10:51:37;;;;;;;;;;;16.70;99.90;;;;;;7343420;19;109181;-65
2022/10/09 10:54:25;;;;;;;;;;;16.90;99.90;;;;;;7336808;19;109160;-65
2022/10/09 10:56:55;;;;;;;;;;;17.00;99.90;;;;;;7337001;19;109414;-65
2022/10/09 10:59:25;;;;;;;;;;;17.10;99.90;;;;;;7338005;19;110404;-65
2022/10/09 11:02:04;;;;;;;;;;;17.20;99.90;;;;;;7338372;19;108440;-65
2022/10/09 11:04:38;;;;;;;;;;;17.30;99.90;;;;;;7338128;19;108699;-65
2022/10/09 11:07:05;;;;;;;;;;;17.40;99.90;;;;;;7336640;19;110163;-65
2022/10/09 11:09:41;;;;;;;;;;;17.50;99.90;;;;;;7335971;19;109400;-65
2022/10/09 11:12:17;;;;;;;;;;;17.50;99.90;;;;;;7343327;19;110599;-65
2022/10/09 11:15:20;;;;;;;;;;;17.60;99.90;;;;;;7334359;19;109105;-65
2022/10/09 11:17:49;;;;;;;;;;;17.70;99.90;;;;;;7333918;19;110179;-65
2022/10/09 11:20:32;;;;;;;;;;;17.80;99.90;;;;;;7336696;19;110336;-65
2022/10/09 11:23:17;;;;;;;;;;;18.00;99.90;;;;;;7337567;19;110062;-65
2022/10/09 11:25:49;;;;;;;;;;;18.10;99.90;;;;;;7336075;19;109107;-65
2022/10/09 11:28:23;;;;;;;;;;;18.30;99.90;;;;;;7335913;19;109433;-65
2022/10/09 11:30:53;;;;;;;;;;;18.50;99.90;;;;;;7337862;19;108901;-65
2022/10/09 11:33:31;;;;;;;;;;;18.60;99.90;;;;;;7337435;19;110059;-65
2022/10/09 11:36:03;;;;;;;;;;;18.60;99.90;;;;;;7343165;19;112101;-65
2022/10/09 11:38:32;;;;;;;;;;;18.70;99.90;;;;;;7336811;19;108968;-65
2022/10/09 11:40:59;;;;;;;;;;;18.80;99.90;;;;;;7337315;19;110252;-65
2022/10/09 11:43:32;;;;;;;;;;;18.80;99.90;;;;;;7336185;19;108585;-65
2022/10/09 11:46:19;;;;;;;;;;;18.90;99.90;;;;;;7337593;19;109354;-65
2022/10/09 11:48:51;;;;;;;;;;;19.10;99.90;;;;;;7337568;19;109473;-65
2022/10/09 11:51:39;;;;;;;;;;;19.10;99.90;;;;;;7336148;19;109411;-65
2022/10/09 11:54:11;;;;;;;;;;;19.20;99.90;;;;;;7334081;19;108822;-65
2022/10/09 11:56:38;;;;;;;;;;;19.30;99.90;;;;;;7337524;19;109112;-65
2022/10/09 11:59:05;;;;;;;;;;;19.50;99.90;;;;;;7339864;19;108738;-65
2022/10/09 12:01:37;;;;;;;;;;;19.60;99.90;;;;;;7337748;19;109125;-65
2022/10/09 12:04:07;;;;;;;;;;;19.60;99.90;;;;;;7339898;19;109156;-66
2022/10/09 12:06:48;;;;;;;;;;;19.70;99.90;;;;;;7337026;19;110148;-65
2022/10/09 12:09:19;;;;;;;;;;;19.80;99.90;;;;;;7336940;19;109185;-65
2022/10/09 12:11:58;;;;;;;;;;;19.90;99.90;;;;;;7337018;19;108689;-65
2022/10/09 12:14:25;;;;;;;;;;;20.00;99.90;;;;;;7335687;19;108647;-65
2022/10/09 12:16:52;;;;;;;;;;;20.00;99.90;;;;;;7336378;19;110031;-66
2022/10/09 12:19:23;;;;;;;;;;;20.10;99.90;;;;;;7336802;19;108561;-65
2022/10/09 12:21:53;;;;;;;;;;;20.30;99.90;;;;;;7342668;19;110035;-65
2022/10/09 12:24:22;;;;;;;;;;;20.40;99.90;;;;;;7337246;19;109129;-66
2022/10/09 12:26:50;;;;;;;;;;;20.40;99.90;;;;;;7334819;19;108445;-66
2022/10/09 12:29:19;;;;;;;;;;;20.50;99.90;;;;;;7334966;19;110300;-68
2022/10/09 12:31:46;;;;;;;;;;;20.60;99.90;;;;;;7332360;19;109219;-65
2022/10/09 12:34:36;;;;;;;;;;;20.70;99.90;;;;;;7336128;19;109892;-66
2022/10/09 12:37:11;;;;;;;;;;;20.70;99.70;;;;;;7335820;19;110381;-65
2022/10/09 12:39:38;;;;;;;;;;;20.80;99.90;;;;;;7335409;19;108742;-65
2022/10/09 12:42:07;;;;;;;;;;;20.90;99.90;;;;;;7335619;19;109529;-65
2022/10/09 12:44:40;;;;;;;;;;;21.10;99.90;;;;;;7339507;19;110550;-65
2022/10/09 12:47:12;;;;;;;;;;;21.20;99.90;;;;;;7332847;19;108741;-65
2022/10/09 12:49:39;;;;;;;;;;;21.30;99.50;;;;;;7335742;19;109218;-67
2022/10/09 12:52:13;;;;;;;;;;;21.30;99.20;;;;;;7336930;19;108664;-65
2022/10/09 12:54:41;;;;;;;;;;;21.40;99.90;;;;;;7334355;19;108373;-65
2022/10/09 12:57:09;;;;;;;;;;;21.40;99.30;;;;;;7334756;19;109398;-65
2022/10/09 12:59:38;;;;;;;;;;;21.50;99.20;;;;;;7336629;19;109061;-65
2022/10/09 13:02:09;;;;;;;;;;;21.60;98.80;;;;;;7334483;19;109791;-65
2022/10/09 13:04:36;;;;;;;;;;;21.60;97.70;;;;;;7333912;19;110379;-66
2022/10/09 13:07:17;;;;;;;;;;;21.70;98.50;;;;;;7340455;19;109159;-65
2022/10/09 13:09:44;;;;;;;;;;;21.80;98.00;;;;;;7334062;19;109754;-65
2022/10/09 13:12:24;;;;;;;;;;;21.90;97.50;;;;;;7334827;19;109315;-66
2022/10/09 13:14:57;;;;;;;;;;;21.90;97.90;;;;;;7333346;19;109609;-65
2022/10/09 13:17:28;;;;;;;;;;;21.90;97.10;;;;;;7332899;19;109638;-66
2022/10/09 13:20:15;;;;;;;;;;;21.90;96.80;;;;;;7334018;19;110122;-66
2022/10/09 13:22:53;;;;;;;;;;;22.00;97.20;;;;;;7336808;19;109430;-65
2022/10/09 13:25:20;;;;;;;;;;;22.10;98.10;;;;;;7336476;19;111273;-66
2022/10/09 13:27:46;;;;;;;;;;;22.20;96.80;;;;;;7342485;19;108683;-66
2022/10/09 13:30:14;;;;;;;;;;;22.20;97.40;;;;;;7331673;19;109291;-65
2022/10/09 13:32:41;;;;;;;;;;;22.30;96.50;;;;;;7330624;19;108843;-66
2022/10/09 13:35:08;;;;;;;;;;;22.30;95.50;;;;;;7330684;19;109415;-65
2022/10/09 13:37:35;;;;;;;;;;;22.30;96.90;;;;;;7335635;19;109981;-66
2022/10/09 13:40:04;;;;;;;;;;;22.30;95.20;;;;;;7330380;19;109075;-65
2022/10/09 13:42:35;;;;;;;;;;;22.30;94.80;;;;;;7332873;19;108299;-65
2022/10/09 13:45:05;;;;;;;;;;;22.30;95.30;;;;;;7331788;19;110238;-65
2022/10/09 13:47:32;;;;;;;;;;;22.40;95.40;;;;;;7331700;19;108922;-65
2022/10/09 13:49:59;;;;;;;;;;;22.40;94.80;;;;;;7336260;19;108831;-65
2022/10/09 13:52:26;;;;;;;;;;;22.40;94.70;;;;;;7322802;19;110807;-65
2022/10/09 13:54:53;;;;;;;;;;;22.50;94.70;;;;;;7325482;19;108775;-66
2022/10/09 13:57:20;;;;;;;;;;;22.60;94.60;;;;;;7327986;19;110355;-65
2022/10/09 13:59:46;;;;;;;;;;;22.50;94.60;;;;;;7325624;19;109386;-65
2022/10/09 14:02:13;;;;;;;;;;;22.60;95.00;;;;;;7325352;19;110385;-65
2022/10/09 14:04:40;;;;;;;;;;;22.60;93.50;;;;;;7327241;19;111438;-65
2022/10/09 14:07:07;;;;;;;;;;;22.60;93.90;;;;;;7325921;19;108917;-65
2022/10/09 14:09:34;;;;;;;;;;;22.70;95.20;;;;;;7341819;19;108640;-66
2022/10/09 14:12:01;;;;;;;;;;;22.70;93.60;;;;;;7345061;19;109379;-65
2022/10/09 14:14:28;;;;;;;;;;;22.70;92.90;;;;;;7345144;19;108347;-65
2022/10/09 14:16:55;;;;;;;;;;;22.70;93.60;;;;;;7335473;19;109362;-66
2022/10/09 14:19:26;;;;;;;;;;;22.70;93.60;;;;;;7339300;19;108670;-66
2022/10/09 14:21:54;;;;;;;;;;;22.70;94.30;;;;;;7339848;19;110988;-65
2022/10/09 14:24:21;;;;;;;;;;;22.80;93.30;;;;;;7340176;19;110426;-65
2022/10/09 14:26:48;;;;;;;;;;;22.80;93.50;;;;;;7341298;19;108577;-65
2022/10/09 14:29:17;;;;;;;;;;;22.80;93.10;;;;;;7338504;19;109113;-65
2022/10/09 14:31:44;;;;;;;;;;;22.80;92.90;;;;;;7341744;19;109392;-65